Missouri City, Texas
Current Conditions -  °F | °C
As of 2:33 AM on Monday 22 Dec 2014 (Local Time) from KSGR Reporting Station
Haze Haze  
Wind Chill: 13°   Ceiling: 4400
Heat Index: 13°   Visibility: 4mi
Dew Point: 13°   Wind: 0mph
Humidity: 97%   Direction: NA
Pressure: 29.82"   Gusts: NA
Location:  29.61°N, 95.53°W
Report Text: KSGR 220833Z AUTO 00000KT 4SM BR FEW004 SCT030 OVC044 13/13 A2982 RMK AO2 T01330128
Loading
Personal Weather Stations






























Interactive Weather Map New forecast layout! Learn more

10-Day Weather Forecast

Advertisements
Track Severe Weather on mobile